createdAt,value
2018-07-31T00:01:55.769Z,50.79
2018-07-31T00:04:23.781Z,51.23
2018-07-31T00:06:51.776Z,51.09
2018-07-31T00:09:19.779Z,51.43
2018-07-31T00:11:47.828Z,51.85
2018-07-31T00:14:15.817Z,51.75
2018-07-31T00:16:43.807Z,51.88
2018-07-31T00:19:11.802Z,52.00
2018-07-31T00:21:39.812Z,52.00
2018-07-31T00:24:07.848Z,51.51
2018-07-31T00:26:35.863Z,51.49
2018-07-31T00:29:03.887Z,51.61
2018-07-31T00:31:31.856Z,52.70
2018-07-31T00:33:59.876Z,51.39
2018-07-31T00:36:27.872Z,51.08
2018-07-31T00:38:55.920Z,51.07
2018-07-31T00:41:23.912Z,52.19
2018-07-31T00:43:51.929Z,52.33
2018-07-31T00:46:19.920Z,51.16
2018-07-31T00:48:47.900Z,51.26
2018-07-31T00:51:15.944Z,51.78
2018-07-31T00:53:43.947Z,51.36
2018-07-31T00:56:11.942Z,51.55
2018-07-31T00:58:39.940Z,51.19
2018-07-31T01:01:07.936Z,52.13
2018-07-31T01:03:35.934Z,51.02
2018-07-31T01:06:03.920Z,50.95
2018-07-31T01:08:31.931Z,51.24
2018-07-31T01:10:59.985Z,52.10
2018-07-31T01:13:27.962Z,51.12
2018-07-31T01:15:55.953Z,52.13
2018-07-31T01:18:23.972Z,51.07
2018-07-31T01:20:52.536Z,51.68
2018-07-31T01:23:20.708Z,51.07
2018-07-31T01:25:50.796Z,51.15
2018-07-31T01:28:18.793Z,51.28
2018-07-31T01:30:46.771Z,52.28
2018-07-31T01:33:14.776Z,51.39
2018-07-31T01:35:42.776Z,51.39
2018-07-31T01:38:10.772Z,51.01
2018-07-31T01:40:38.785Z,50.90
2018-07-31T01:43:06.932Z,50.92
2018-07-31T01:45:35.038Z,50.82
2018-07-31T01:48:03.049Z,51.66
2018-07-31T01:50:31.085Z,51.32
2018-07-31T01:52:59.232Z,51.84
2018-07-31T01:55:27.272Z,50.98
2018-07-31T01:57:55.272Z,50.78
2018-07-31T02:00:23.492Z,51.13
2018-07-31T02:02:51.485Z,50.94
2018-07-31T02:05:19.481Z,51.96
2018-07-31T02:07:47.482Z,50.74
2018-07-31T02:10:15.500Z,51.04
2018-07-31T02:12:43.565Z,50.88
2018-07-31T02:15:11.564Z,50.70
2018-07-31T02:17:39.572Z,50.95
2018-07-31T02:20:07.608Z,51.29
2018-07-31T02:22:35.644Z,51.33
2018-07-31T02:25:03.666Z,51.71
2018-07-31T02:27:31.664Z,52.13
2018-07-31T02:30:05.116Z,52.29
2018-07-31T02:32:33.106Z,51.32
2018-07-31T02:35:01.106Z,51.88
2018-07-31T02:37:29.212Z,52.14
2018-07-31T02:39:57.240Z,52.24
2018-07-31T02:42:26.520Z,52.48
2018-07-31T02:44:54.556Z,52.43
2018-07-31T02:47:22.557Z,51.44
2018-07-31T02:49:50.561Z,51.32
2018-07-31T02:52:18.611Z,51.11
2018-07-31T02:54:46.592Z,51.27
2018-07-31T02:57:14.597Z,51.00
2018-07-31T02:59:42.608Z,50.14
2018-07-31T03:02:10.662Z,51.34
2018-07-31T03:04:38.652Z,50.45
2018-07-31T03:07:06.833Z,49.94
2018-07-31T03:09:34.848Z,51.49
2018-07-31T03:12:02.872Z,50.65
2018-07-31T03:14:30.876Z,51.23
2018-07-31T03:16:58.900Z,50.87
2018-07-31T03:19:26.925Z,51.01
2018-07-31T03:21:54.960Z,51.53
2018-07-31T03:24:22.962Z,52.33
2018-07-31T03:26:50.984Z,52.42
2018-07-31T03:29:18.985Z,52.08
2018-07-31T03:31:46.984Z,51.85
2018-07-31T03:34:14.985Z,52.96
2018-07-31T03:36:43.119Z,52.54
2018-07-31T03:39:11.349Z,52.18
2018-07-31T03:41:39.433Z,53.00
2018-07-31T03:44:07.596Z,52.64
2018-07-31T03:46:35.615Z,52.58
2018-07-31T03:49:03.610Z,52.53
2018-07-31T03:51:31.620Z,53.13
2018-07-31T03:53:59.705Z,52.74
2018-07-31T03:56:27.800Z,53.57
2018-07-31T03:58:55.818Z,53.18
2018-07-31T04:01:23.951Z,53.15
2018-07-31T04:03:51.934Z,53.16
2018-07-31T04:06:20.156Z,53.26
2018-07-31T04:08:48.165Z,53.73
2018-07-31T04:11:16.160Z,52.91
2018-07-31T04:13:44.153Z,53.61
2018-07-31T04:16:12.162Z,52.75
2018-07-31T04:18:40.181Z,53.46
2018-07-31T04:21:08.193Z,53.08
2018-07-31T04:23:36.194Z,53.66
2018-07-31T04:26:04.197Z,53.54
2018-07-31T04:28:32.197Z,53.88
2018-07-31T04:31:00.209Z,54.08
2018-07-31T04:33:28.242Z,53.84
2018-07-31T04:35:56.368Z,53.73
2018-07-31T04:38:24.325Z,54.61
2018-07-31T04:40:52.325Z,53.82
2018-07-31T04:43:20.324Z,54.46
2018-07-31T04:45:48.328Z,54.55
2018-07-31T04:48:16.397Z,54.21
2018-07-31T04:50:44.409Z,53.95
2018-07-31T04:53:12.444Z,53.17
2018-07-31T04:55:40.464Z,52.71
2018-07-31T04:58:08.510Z,52.53
2018-07-31T05:00:36.480Z,52.76
2018-07-31T05:03:04.529Z,53.21
2018-07-31T05:05:32.543Z,52.43
2018-07-31T05:08:00.569Z,52.67
2018-07-31T05:10:28.548Z,52.21
2018-07-31T05:12:56.604Z,52.56
2018-07-31T05:15:24.661Z,52.04
2018-07-31T05:17:52.681Z,51.23
2018-07-31T05:20:20.692Z,51.93
2018-07-31T05:22:48.713Z,50.55
2018-07-31T05:25:16.883Z,49.90
2018-07-31T05:27:44.860Z,47.79
2018-07-31T05:30:12.960Z,43.62
2018-07-31T05:32:41.113Z,40.46
2018-07-31T05:35:09.812Z,37.12
2018-07-31T05:37:38.005Z,35.99
2018-07-31T05:40:06.972Z,36.21
2018-07-31T05:42:34.981Z,35.54
2018-07-31T05:45:02.969Z,35.32
2018-07-31T05:47:30.986Z,32.82
2018-07-31T05:49:58.972Z,31.36
2018-07-31T05:52:27.177Z,29.92
2018-07-31T05:54:55.231Z,28.47
2018-07-31T05:57:23.383Z,27.82
2018-07-31T05:59:51.552Z,26.89
2018-07-31T06:02:19.612Z,28.01
2018-07-31T06:04:47.677Z,26.87
2018-07-31T06:07:15.770Z,26.71
2018-07-31T06:09:43.757Z,25.54
2018-07-31T06:12:12.805Z,25.01
2018-07-31T06:14:40.856Z,24.59
2018-07-31T06:17:08.960Z,23.49
2018-07-31T06:19:38.057Z,23.17
2018-07-31T06:22:06.435Z,22.30
2018-07-31T06:24:34.509Z,22.62
2018-07-31T06:27:02.591Z,22.94
2018-07-31T06:29:30.512Z,22.92
2018-07-31T06:31:58.509Z,23.43
2018-07-31T06:34:26.608Z,23.57
2018-07-31T06:36:54.596Z,22.93
2018-07-31T06:39:22.587Z,23.46
2018-07-31T06:41:50.607Z,24.51
2018-07-31T06:44:18.596Z,25.69
2018-07-31T06:46:46.638Z,25.54
2018-07-31T06:49:14.648Z,25.09
2018-07-31T06:51:42.746Z,25.49
2018-07-31T06:54:10.748Z,23.82
2018-07-31T06:56:38.773Z,22.75
2018-07-31T06:59:06.716Z,20.55
2018-07-31T07:01:34.747Z,20.06
2018-07-31T07:04:02.741Z,20.93
2018-07-31T07:06:30.720Z,20.19
2018-07-31T07:08:58.697Z,18.93
2018-07-31T07:11:26.680Z,18.83
2018-07-31T07:13:54.704Z,19.16
2018-07-31T07:16:22.684Z,18.85
2018-07-31T07:18:50.672Z,18.92
2018-07-31T07:21:18.691Z,20.38
2018-07-31T07:23:46.841Z,20.16
2018-07-31T07:26:14.817Z,20.42
2018-07-31T07:28:42.784Z,20.61
2018-07-31T07:31:10.775Z,22.35
2018-07-31T07:33:38.828Z,22.89
2018-07-31T07:36:06.844Z,23.48
2018-07-31T07:38:34.832Z,25.46
2018-07-31T07:41:02.800Z,25.36
2018-07-31T07:43:30.788Z,25.01
2018-07-31T07:45:58.773Z,25.21
2018-07-31T07:48:26.858Z,25.69
2018-07-31T07:50:54.728Z,25.84
2018-07-31T07:53:22.756Z,26.74
2018-07-31T07:55:50.741Z,26.23
2018-07-31T07:58:18.724Z,28.28
2018-07-31T08:00:47.589Z,27.29
2018-07-31T08:03:15.572Z,26.97
2018-07-31T08:05:43.548Z,26.00
2018-07-31T08:08:11.817Z,25.40
2018-07-31T08:10:42.137Z,24.87
2018-07-31T08:13:10.160Z,24.97
2018-07-31T08:15:38.132Z,24.38
2018-07-31T08:18:06.116Z,24.86
2018-07-31T08:20:34.378Z,25.97
2018-07-31T08:23:02.356Z,25.50
2018-07-31T08:25:30.451Z,24.52
2018-07-31T08:27:58.436Z,24.75
2018-07-31T08:30:26.460Z,22.78
2018-07-31T08:32:54.595Z,23.92
2018-07-31T08:35:22.630Z,23.92
2018-07-31T08:37:50.709Z,23.99
2018-07-31T08:40:18.706Z,24.66
2018-07-31T08:42:46.748Z,24.37
2018-07-31T08:45:14.776Z,25.82
2018-07-31T08:47:42.884Z,26.43
2018-07-31T08:50:10.860Z,28.45
2018-07-31T08:52:38.845Z,26.74
2018-07-31T08:55:06.824Z,27.64
2018-07-31T08:57:34.817Z,26.98
2018-07-31T09:00:02.822Z,27.58
2018-07-31T09:02:30.924Z,29.33
2018-07-31T09:04:58.916Z,26.70
2018-07-31T09:07:26.884Z,26.81
2018-07-31T09:09:54.876Z,26.31
2018-07-31T09:12:22.888Z,26.54
2018-07-31T09:14:50.858Z,25.55
2018-07-31T09:17:18.832Z,26.87
2018-07-31T09:19:46.922Z,27.93
2018-07-31T09:22:14.967Z,27.83
2018-07-31T09:24:42.907Z,27.88
2018-07-31T09:27:11.041Z,27.39
2018-07-31T09:29:39.040Z,29.29
2018-07-31T09:32:07.032Z,27.39
2018-07-31T09:34:40.456Z,29.58
2018-07-31T09:37:08.432Z,30.15
2018-07-31T09:39:36.516Z,30.67
2018-07-31T09:42:04.543Z,31.38
2018-07-31T09:44:32.536Z,30.55
2018-07-31T09:47:00.517Z,30.92
2018-07-31T09:49:28.524Z,29.97
2018-07-31T09:51:56.552Z,30.96
2018-07-31T09:54:24.572Z,31.56
2018-07-31T09:56:52.962Z,30.88
2018-07-31T09:59:20.944Z,31.37
2018-07-31T10:01:48.939Z,30.70
2018-07-31T10:04:16.972Z,31.56
2018-07-31T10:06:44.969Z,31.94
2018-07-31T10:09:13.052Z,30.79
2018-07-31T10:11:41.057Z,31.71
2018-07-31T10:14:09.068Z,30.74
2018-07-31T10:16:37.130Z,32.30
2018-07-31T10:19:05.112Z,31.86
2018-07-31T10:21:33.212Z,32.81
2018-07-31T10:24:01.244Z,30.83
2018-07-31T10:26:29.200Z,29.91
2018-07-31T10:28:57.243Z,29.15
2018-07-31T10:31:25.224Z,30.67
2018-07-31T10:33:53.300Z,28.66
2018-07-31T10:36:21.358Z,28.53
2018-07-31T10:38:49.380Z,30.16
2018-07-31T10:41:17.423Z,28.22
2018-07-31T10:43:45.421Z,28.91
2018-07-31T10:46:13.431Z,29.44
2018-07-31T10:48:41.412Z,27.81
2018-07-31T10:51:09.412Z,29.16
2018-07-31T10:53:37.414Z,26.44
2018-07-31T10:56:05.584Z,27.07
2018-07-31T10:58:33.664Z,27.09
2018-07-31T11:01:01.661Z,26.61
2018-07-31T11:03:29.640Z,25.36
2018-07-31T11:05:57.730Z,25.47
2018-07-31T11:08:25.782Z,25.79
2018-07-31T11:10:53.820Z,26.64
2018-07-31T11:13:21.918Z,26.84
2018-07-31T11:15:49.799Z,26.21
2018-07-31T11:18:17.775Z,28.55
2018-07-31T11:20:45.781Z,29.55
2018-07-31T11:23:13.848Z,26.96
2018-07-31T11:25:41.897Z,27.92
2018-07-31T11:28:09.884Z,26.90
2018-07-31T11:30:37.909Z,25.74
2018-07-31T11:33:05.906Z,25.60
2018-07-31T11:35:33.872Z,26.26
2018-07-31T11:38:01.867Z,26.90
2018-07-31T11:40:29.903Z,26.15
2018-07-31T11:42:57.980Z,26.67
2018-07-31T11:45:26.118Z,26.29
2018-07-31T11:47:54.188Z,26.24
2018-07-31T11:50:22.345Z,27.27
2018-07-31T11:52:50.488Z,26.57
2018-07-31T11:55:18.536Z,25.30
2018-07-31T11:57:47.623Z,26.32
2018-07-31T12:00:15.611Z,26.06
2018-07-31T12:02:43.652Z,26.86
2018-07-31T12:05:11.749Z,25.77
2018-07-31T12:07:39.868Z,25.85
2018-07-31T12:10:07.920Z,26.04
2018-07-31T12:12:36.066Z,24.37
2018-07-31T12:15:04.564Z,24.23
2018-07-31T12:17:32.612Z,25.14
2018-07-31T12:20:00.598Z,25.08
2018-07-31T12:22:28.666Z,24.43
2018-07-31T12:24:56.653Z,25.81
2018-07-31T12:27:24.632Z,25.76
2018-07-31T12:29:52.686Z,25.04
2018-07-31T12:32:20.701Z,23.92
2018-07-31T12:34:48.684Z,24.84
2018-07-31T12:37:16.676Z,24.95
2018-07-31T12:39:44.676Z,23.29
2018-07-31T12:42:12.673Z,22.54
2018-07-31T12:44:40.776Z,23.45
2018-07-31T12:47:08.968Z,22.72
2018-07-31T12:49:37.200Z,23.49
2018-07-31T12:52:05.232Z,21.43
2018-07-31T12:54:33.217Z,21.40
2018-07-31T12:57:01.376Z,23.69
2018-07-31T12:59:29.532Z,23.14
2018-07-31T13:01:57.713Z,22.30
2018-07-31T13:04:25.732Z,20.87
2018-07-31T13:06:53.902Z,21.27
2018-07-31T13:09:21.873Z,21.77
2018-07-31T13:11:49.961Z,22.83
2018-07-31T13:14:18.033Z,23.86
2018-07-31T13:16:46.311Z,22.81
2018-07-31T13:19:14.409Z,21.78
2018-07-31T13:21:42.708Z,22.54
2018-07-31T13:24:10.769Z,23.53
2018-07-31T13:26:38.881Z,23.81
2018-07-31T13:29:07.037Z,21.80
2018-07-31T13:31:35.128Z,21.15
2018-07-31T13:34:03.260Z,22.86
2018-07-31T13:36:31.368Z,22.44
2018-07-31T13:38:59.500Z,21.78
2018-07-31T13:41:27.669Z,21.90
2018-07-31T13:43:56.090Z,23.34
2018-07-31T13:46:24.161Z,24.71
2018-07-31T13:48:52.310Z,23.91
2018-07-31T13:51:20.479Z,21.76
2018-07-31T13:53:48.550Z,22.49
2018-07-31T13:56:16.624Z,23.32
2018-07-31T13:58:45.817Z,22.56
2018-07-31T14:01:13.976Z,22.67
2018-07-31T14:03:41.978Z,22.44
2018-07-31T14:06:09.948Z,22.52
2018-07-31T14:08:38.630Z,22.29
2018-07-31T14:11:06.665Z,21.21
2018-07-31T14:13:34.664Z,21.95
2018-07-31T14:16:02.788Z,22.09
2018-07-31T14:18:30.842Z,22.26
2018-07-31T14:22:02.453Z,20.94
2018-07-31T14:24:30.569Z,21.46
2018-07-31T14:26:58.788Z,21.23
2018-07-31T14:29:26.756Z,21.31
2018-07-31T14:31:54.772Z,21.79
2018-07-31T14:34:22.800Z,21.66
2018-07-31T14:36:50.796Z,21.54
2018-07-31T14:39:18.794Z,22.79
2018-07-31T14:41:46.772Z,24.26
2018-07-31T14:44:14.770Z,25.20
2018-07-31T14:46:42.752Z,25.00
2018-07-31T14:49:10.762Z,25.70
2018-07-31T14:51:38.808Z,25.30
2018-07-31T14:54:06.969Z,25.95
2018-07-31T14:56:34.974Z,25.83
2018-07-31T14:59:02.959Z,25.12
2018-07-31T15:01:31.016Z,24.51
2018-07-31T15:03:59.037Z,25.28
2018-07-31T15:06:27.280Z,26.26
2018-07-31T15:08:55.342Z,25.70
2018-07-31T15:11:23.473Z,25.16
2018-07-31T15:13:51.651Z,24.74
2018-07-31T15:16:19.743Z,25.75
2018-07-31T15:18:47.740Z,25.32
2018-07-31T15:21:15.756Z,26.34
2018-07-31T15:23:43.726Z,25.85
2018-07-31T15:26:11.744Z,25.11
2018-07-31T15:28:39.770Z,24.40
2018-07-31T15:31:07.745Z,26.06
2018-07-31T15:33:35.840Z,24.22
2018-07-31T15:36:03.839Z,25.93
2018-07-31T15:38:31.869Z,24.87
2018-07-31T15:40:59.936Z,26.34
2018-07-31T15:43:27.977Z,26.15
2018-07-31T15:45:56.037Z,25.64
2018-07-31T15:48:24.517Z,25.79
2018-07-31T15:50:52.512Z,25.72
2018-07-31T15:53:20.512Z,25.35
2018-07-31T15:55:48.573Z,25.56
2018-07-31T15:58:16.590Z,25.36
2018-07-31T16:00:44.628Z,26.79
2018-07-31T16:03:12.680Z,26.17
2018-07-31T16:05:40.744Z,26.22
2018-07-31T16:08:08.713Z,26.10
2018-07-31T16:10:36.740Z,27.10
2018-07-31T16:13:04.733Z,26.52
2018-07-31T16:15:32.749Z,26.51
2018-07-31T16:18:00.809Z,25.82
2018-07-31T16:20:28.816Z,26.53
2018-07-31T16:22:56.881Z,27.19
2018-07-31T16:25:24.797Z,26.52
2018-07-31T16:27:52.808Z,27.52
2018-07-31T16:30:20.820Z,27.62
2018-07-31T16:32:48.793Z,28.13
2018-07-31T16:35:16.792Z,28.26
2018-07-31T16:37:44.841Z,27.57
2018-07-31T16:40:12.856Z,27.55
2018-07-31T16:42:40.986Z,27.54
2018-07-31T16:45:09.000Z,28.60
2018-07-31T16:47:37.150Z,28.40
2018-07-31T16:50:05.388Z,28.11
2018-07-31T16:52:33.362Z,32.79
2018-07-31T16:55:01.356Z,34.09
2018-07-31T16:57:29.332Z,35.80
2018-07-31T16:59:57.308Z,36.97
2018-07-31T17:02:25.456Z,37.34
2018-07-31T17:04:53.450Z,37.60
2018-07-31T17:07:21.445Z,37.30
2018-07-31T17:09:49.548Z,38.09
2018-07-31T17:12:17.596Z,39.20
2018-07-31T17:14:45.609Z,40.14
2018-07-31T17:17:13.669Z,39.99
2018-07-31T17:19:41.745Z,40.18
2018-07-31T17:22:09.756Z,40.96
2018-07-31T17:24:37.980Z,41.72
2018-07-31T17:27:06.011Z,42.45
2018-07-31T17:29:34.017Z,41.65
2018-07-31T17:32:02.162Z,42.68
2018-07-31T17:34:30.157Z,44.83
2018-07-31T17:36:58.174Z,45.08
2018-07-31T17:39:26.203Z,46.32
2018-07-31T17:41:54.268Z,46.37
2018-07-31T17:44:22.324Z,46.80
2018-07-31T17:46:50.684Z,47.31
2018-07-31T17:49:18.724Z,48.23
2018-07-31T17:51:46.740Z,47.41
2018-07-31T17:54:14.740Z,48.64
2018-07-31T17:56:42.769Z,48.13
2018-07-31T17:59:10.924Z,48.63
2018-07-31T18:01:39.062Z,47.94
2018-07-31T18:04:07.191Z,47.68
2018-07-31T18:06:35.176Z,48.09
2018-07-31T18:09:03.312Z,47.98
2018-07-31T18:11:31.313Z,48.57
2018-07-31T18:13:59.330Z,48.99
2018-07-31T18:16:27.385Z,49.71
2018-07-31T18:18:55.555Z,49.93
2018-07-31T18:21:23.612Z,51.22
2018-07-31T18:23:51.663Z,49.78
2018-07-31T18:26:19.668Z,50.21
2018-07-31T18:28:47.665Z,50.38
2018-07-31T18:31:15.753Z,50.92
2018-07-31T18:33:43.746Z,51.38
2018-07-31T18:36:11.747Z,50.22
2018-07-31T18:38:39.772Z,50.29
2018-07-31T18:41:07.900Z,50.92
2018-07-31T18:43:35.799Z,50.47
2018-07-31T18:46:03.896Z,51.33
2018-07-31T18:48:32.002Z,51.40
2018-07-31T18:51:00.057Z,51.12
2018-07-31T18:53:28.276Z,51.70
2018-07-31T18:55:56.517Z,51.87
2018-07-31T18:58:25.912Z,52.58
2018-07-31T19:00:54.558Z,53.03
2018-07-31T19:03:22.632Z,53.62
2018-07-31T19:05:50.652Z,53.17
2018-07-31T19:08:18.769Z,53.65
2018-07-31T19:10:46.964Z,53.17
2018-07-31T19:13:15.084Z,53.78
2018-07-31T19:15:43.289Z,53.62
2018-07-31T19:18:11.324Z,53.17
2018-07-31T19:20:39.551Z,54.06
2018-07-31T19:23:07.713Z,54.27
2018-07-31T19:25:35.772Z,54.19
2018-07-31T19:28:03.969Z,54.45
2018-07-31T19:30:31.956Z,54.88
2018-07-31T19:33:00.163Z,54.99
2018-07-31T19:35:28.322Z,54.47
2018-07-31T19:37:56.491Z,55.12
2018-07-31T19:40:25.137Z,54.67
2018-07-31T19:42:53.568Z,55.42
2018-07-31T19:45:21.831Z,55.51
2018-07-31T19:47:50.353Z,55.16
2018-07-31T19:50:18.552Z,55.73
2018-07-31T19:52:46.936Z,55.90
2018-07-31T19:55:14.989Z,55.88
2018-07-31T19:57:42.996Z,55.37
2018-07-31T20:00:11.028Z,56.17
2018-07-31T20:02:39.111Z,56.35
2018-07-31T20:05:07.426Z,56.03
2018-07-31T20:07:35.456Z,56.74
2018-07-31T20:10:03.531Z,55.24
2018-07-31T20:12:31.748Z,56.68
2018-07-31T20:14:59.696Z,55.95
2018-07-31T20:17:27.776Z,57.00
2018-07-31T20:19:55.794Z,56.18
2018-07-31T20:22:23.852Z,55.85
2018-07-31T20:24:52.112Z,55.84
2018-07-31T20:27:20.156Z,56.54
2018-07-31T20:29:48.188Z,56.06
2018-07-31T20:32:16.434Z,56.41
2018-07-31T20:34:45.547Z,57.26
2018-07-31T20:37:13.661Z,56.51
2018-07-31T20:39:41.793Z,56.72
2018-07-31T20:42:09.937Z,56.78
2018-07-31T20:44:37.992Z,56.47
2018-07-31T20:47:06.178Z,57.28
2018-07-31T20:49:34.291Z,57.21
2018-07-31T20:52:02.389Z,56.34
2018-07-31T20:54:30.399Z,56.76
2018-07-31T20:56:58.444Z,57.60
2018-07-31T20:59:26.619Z,56.86
2018-07-31T21:01:54.753Z,56.48
2018-07-31T21:04:23.100Z,56.44
2018-07-31T21:06:51.156Z,57.23
2018-07-31T21:09:21.185Z,57.71
2018-07-31T21:11:49.989Z,56.73
2018-07-31T21:14:18.250Z,57.05
2018-07-31T21:16:46.417Z,57.55
2018-07-31T21:19:14.480Z,58.17
2018-07-31T21:21:42.540Z,54.71
2018-07-31T21:24:10.604Z,53.61
2018-07-31T21:26:38.775Z,52.44
2018-07-31T21:29:06.800Z,50.46
2018-07-31T21:31:34.828Z,51.23
2018-07-31T21:34:02.961Z,50.21
2018-07-31T21:36:31.096Z,49.06
2018-07-31T21:38:59.120Z,48.61
2018-07-31T21:41:27.321Z,48.27
2018-07-31T21:43:55.424Z,47.20
2018-07-31T21:46:23.556Z,47.36
2018-07-31T21:48:51.719Z,46.19
2018-07-31T21:51:19.866Z,47.35
2018-07-31T21:53:47.956Z,47.21
2018-07-31T21:56:16.084Z,46.83
2018-07-31T21:58:44.142Z,47.06
2018-07-31T22:01:12.293Z,48.02
2018-07-31T22:03:40.368Z,47.37
2018-07-31T22:06:08.552Z,47.48
2018-07-31T22:08:37.358Z,47.84
2018-07-31T22:11:05.630Z,48.33
2018-07-31T22:13:33.637Z,48.92
2018-07-31T22:16:01.732Z,48.60
2018-07-31T22:18:29.744Z,49.78
2018-07-31T22:20:57.761Z,49.22
2018-07-31T22:23:25.936Z,49.65
2018-07-31T22:25:53.964Z,50.32
2018-07-31T22:28:22.046Z,50.95
2018-07-31T22:30:50.048Z,51.23
2018-07-31T22:33:18.077Z,51.20
2018-07-31T22:35:46.111Z,51.18
2018-07-31T22:38:14.147Z,52.37
2018-07-31T22:40:42.192Z,52.34
2018-07-31T22:43:10.234Z,51.56
2018-07-31T22:45:38.225Z,51.59
2018-07-31T22:48:06.249Z,53.09
2018-07-31T22:50:34.389Z,52.82
2018-07-31T22:53:02.416Z,53.21
2018-07-31T22:55:30.501Z,53.11
2018-07-31T22:57:58.695Z,52.78
2018-07-31T23:00:26.661Z,53.72
2018-07-31T23:02:54.660Z,53.23
2018-07-31T23:05:22.652Z,54.60
2018-07-31T23:07:50.648Z,54.99
2018-07-31T23:10:20.257Z,55.23
2018-07-31T23:12:49.248Z,55.00
2018-07-31T23:15:17.254Z,54.20
2018-07-31T23:17:45.244Z,54.08
2018-07-31T23:20:13.253Z,55.15
2018-07-31T23:22:44.141Z,54.21
2018-07-31T23:25:12.120Z,54.33
2018-07-31T23:30:08.105Z,55.33
2018-07-31T23:32:36.608Z,54.83
2018-07-31T23:35:04.883Z,55.29
2018-07-31T23:37:32.964Z,54.69
2018-07-31T23:40:02.046Z,55.69
2018-07-31T23:42:30.506Z,55.31
2018-07-31T23:44:58.523Z,55.50
2018-07-31T23:47:27.584Z,54.78
2018-07-31T23:49:55.696Z,54.49
2018-07-31T23:52:23.715Z,54.59
2018-07-31T23:54:51.786Z,54.58
2018-07-31T23:57:19.760Z,55.21
2018-07-31T23:59:47.776Z,55.52
